Carterton, Virginia
Current Conditions -  °F | °C
As of 3:55 AM on Saturday 22 Nov 2014 (Local Time) from KVJI Reporting Station
Clear Clear  
Wind Chill: 21°   Ceiling: Unl
Heat Index: 30°   Visibility: 10mi
Dew Point: 13°   Wind: 9mph
Humidity: 50%   Direction: 90°E
Pressure: 30.42"   Gusts: NA
Location:  36.85°N, 82.1249°W
Report Text: KVJI 220855Z AUTO 09008KT 10SM CLR M01/M10 A3042 RMK AO2 T10121105
Loading
Personal Weather Stations






























Interactive Weather Map New forecast layout! Learn more

10-Day Weather Forecast

Advertisements
Track Severe Weather on mobile